NCAR-RAP Real-Time Weather Data

Output produced by METARs form (10 April 2020  06:52 UTC)
found at http://weather.rap.ucar.edu/surface/
 
KGLD 100553Z AUTO 11008KT 10SM CLR M01/M09 A3015 RMK AO2 SLP212 T10061089 10150 21006 50003
KGLD 100453Z AUTO 11010KT 10SM CLR 03/M08 A3016 RMK AO2 SLP212 T00281083
KGLD 100353Z AUTO 11007KT 10SM FEW070 03/M06 A3016 RMK AO2 SLP216 T00331061
KGLD 100253Z AUTO 08014KT 10SM CLR 07/M06 A3014 RMK AO2 SLP206 T00721061 53017
KGLD 100153Z AUTO 08003KT 10SM CLR 07/M03 A3009 RMK AO2 SLP193 T00721033
KGLD 100053Z AUTO 06003KT 10SM CLR 13/M03 A3008 RMK AO2 SLP186 T01331028
KGLD 092353Z AUTO 32006KT 10SM BKN070 15/M03 A3008 RMK AO2 SLP187 T01501028 10156 20111 56013
KGLD 092253Z AUTO 01009KT 10SM FEW070 14/M03 A3008 RMK AO2 SLP187 T01391033
KGLD 092153Z AUTO VRB05KT 10SM SCT065 15/M03 A3010 RMK AO2 SLP194 T01501028
KGLD 092053Z AUTO VRB06KT 10SM BKN065 13/M03 A3012 RMK AO2 SLP201 T01331033 58015
KGLD 091953Z AUTO VRB03KT 10SM BKN060 13/M03 A3014 RMK AO2 SLP208 T01331028
KGLD 091853Z AUTO 01007KT 10SM OVC060 12/M02 A3016 RMK AO2 SLP213 T01221022
KGLD 091753Z AUTO 00000KT 10SM OVC060 11/M03 A3017 RMK AO2 SLP218 T01111033 10111 21017 58003
KGLD 091653Z AUTO 00000KT 10SM OVC060 10/M04 A3019 RMK AO2 SLP226 T01001039
KGLD 091553Z AUTO 00000KT 10SM OVC055 08/M04 A3021 RMK AO2 SLP229 T00781039
KGLD 091453Z AUTO 00000KT 10SM CLR 07/M03 A3018 RMK AO2 SLP222 T00671028 51014
KGLD 091353Z AUTO 32003KT 10SM CLR 03/M01 A3018 RMK AO2 SLP221 T00331006
KGLD 091253Z AUTO 28004KT 10SM CLR M01/M03 A3016 RMK AO2 SLP211 T10111033
KGLD 091153Z AUTO 30003KT 10SM CLR M01/M04 A3014 RMK AO2 SLP198 T10111039 10028 21017 51010
KGLD 091053Z AUTO 32003KT 10SM CLR M01/M04 A3013 RMK AO2 SLP192 T10111039
KGLD 090953Z AUTO 36004KT 10SM CLR M02/M03 A3012 RMK AO2 SLP188 T10171033
KGLD 090853Z AUTO 00000KT 10SM CLR 01/M03 A3011 RMK AO2 SLP180 T00061028 55000